sensor_id;sensor_type;location;lat;lon;timestamp;P1;durP1;ratioP1;P2;durP2;ratioP2
5351;SDS011;2698;51.454;6.736;2022-11-20T00:00:38;32.90;;;19.03;;
5351;SDS011;2698;51.454;6.736;2022-11-20T00:03:06;28.77;;;20.40;;
5351;SDS011;2698;51.454;6.736;2022-11-20T00:05:33;26.47;;;17.37;;
5351;SDS011;2698;51.454;6.736;2022-11-20T00:08:00;29.53;;;20.10;;
5351;SDS011;2698;51.454;6.736;2022-11-20T00:10:28;34.57;;;19.23;;
5351;SDS011;2698;51.454;6.736;2022-11-20T00:12:54;33.23;;;22.60;;
5351;SDS011;2698;51.454;6.736;2022-11-20T00:15:21;30.37;;;21.43;;
5351;SDS011;2698;51.454;6.736;2022-11-20T00:17:48;34.60;;;21.87;;
5351;SDS011;2698;51.454;6.736;2022-11-20T00:20:16;31.67;;;19.53;;
5351;SDS011;2698;51.454;6.736;2022-11-20T00:22:43;32.70;;;20.63;;
5351;SDS011;2698;51.454;6.736;2022-11-20T00:25:09;32.63;;;21.00;;
5351;SDS011;2698;51.454;6.736;2022-11-20T00:27:36;28.23;;;19.33;;
5351;SDS011;2698;51.454;6.736;2022-11-20T00:30:03;29.33;;;20.37;;
5351;SDS011;2698;51.454;6.736;2022-11-20T00:32:31;35.77;;;20.03;;
5351;SDS011;2698;51.454;6.736;2022-11-20T00:34:58;34.23;;;22.47;;
5351;SDS011;2698;51.454;6.736;2022-11-20T00:37:26;31.10;;;19.70;;
5351;SDS011;2698;51.454;6.736;2022-11-20T00:39:53;31.97;;;20.10;;
5351;SDS011;2698;51.454;6.736;2022-11-20T00:42:19;50.53;;;23.20;;
5351;SDS011;2698;51.454;6.736;2022-11-20T00:44:46;32.77;;;21.40;;
5351;SDS011;2698;51.454;6.736;2022-11-20T00:47:13;30.73;;;20.37;;
5351;SDS011;2698;51.454;6.736;2022-11-20T00:49:40;34.70;;;20.27;;
5351;SDS011;2698;51.454;6.736;2022-11-20T00:52:06;32.10;;;20.30;;
5351;SDS011;2698;51.454;6.736;2022-11-20T00:54:34;37.63;;;20.07;;
5351;SDS011;2698;51.454;6.736;2022-11-20T00:57:01;32.20;;;19.63;;
5351;SDS011;2698;51.454;6.736;2022-11-20T00:59:28;34.63;;;21.27;;
5351;SDS011;2698;51.454;6.736;2022-11-20T01:01:55;31.00;;;20.10;;
5351;SDS011;2698;51.454;6.736;2022-11-20T01:04:21;29.50;;;19.80;;
5351;SDS011;2698;51.454;6.736;2022-11-20T01:06:48;34.57;;;21.60;;
5351;SDS011;2698;51.454;6.736;2022-11-20T01:09:15;34.53;;;23.03;;
5351;SDS011;2698;51.454;6.736;2022-11-20T01:11:43;35.00;;;22.10;;
5351;SDS011;2698;51.454;6.736;2022-11-20T01:14:12;35.07;;;23.50;;
5351;SDS011;2698;51.454;6.736;2022-11-20T01:16:40;33.13;;;21.90;;
5351;SDS011;2698;51.454;6.736;2022-11-20T01:19:09;39.80;;;23.33;;
5351;SDS011;2698;51.454;6.736;2022-11-20T01:21:38;38.80;;;25.87;;
5351;SDS011;2698;51.454;6.736;2022-11-20T01:24:07;42.83;;;25.40;;
5351;SDS011;2698;51.454;6.736;2022-11-20T01:26:37;41.97;;;26.50;;
5351;SDS011;2698;51.454;6.736;2022-11-20T01:29:06;38.73;;;26.80;;
5351;SDS011;2698;51.454;6.736;2022-11-20T01:31:36;37.27;;;26.17;;
5351;SDS011;2698;51.454;6.736;2022-11-20T01:34:04;41.60;;;27.77;;
5351;SDS011;2698;51.454;6.736;2022-11-20T01:36:32;37.77;;;27.87;;
5351;SDS011;2698;51.454;6.736;2022-11-20T01:39:02;38.10;;;26.20;;
5351;SDS011;2698;51.454;6.736;2022-11-20T01:41:30;44.73;;;27.00;;
5351;SDS011;2698;51.454;6.736;2022-11-20T01:44:19;35.30;;;25.43;;
5351;SDS011;2698;51.454;6.736;2022-11-20T01:46:49;44.57;;;26.23;;
5351;SDS011;2698;51.454;6.736;2022-11-20T01:49:24;38.97;;;24.30;;
5351;SDS011;2698;51.454;6.736;2022-11-20T01:51:58;44.97;;;28.60;;
5351;SDS011;2698;51.454;6.736;2022-11-20T01:54:28;32.70;;;23.67;;
5351;SDS011;2698;51.454;6.736;2022-11-20T01:57:00;34.93;;;24.80;;
5351;SDS011;2698;51.454;6.736;2022-11-20T01:59:31;38.77;;;26.50;;
5351;SDS011;2698;51.454;6.736;2022-11-20T02:01:58;38.70;;;26.07;;
5351;SDS011;2698;51.454;6.736;2022-11-20T02:04:25;39.73;;;26.10;;
5351;SDS011;2698;51.454;6.736;2022-11-20T02:06:53;46.60;;;27.13;;
5351;SDS011;2698;51.454;6.736;2022-11-20T02:09:25;35.27;;;22.93;;
5351;SDS011;2698;51.454;6.736;2022-11-20T02:11:52;35.33;;;23.53;;
5351;SDS011;2698;51.454;6.736;2022-11-20T02:14:19;36.10;;;22.67;;
5351;SDS011;2698;51.454;6.736;2022-11-20T02:16:48;39.90;;;24.57;;
5351;SDS011;2698;51.454;6.736;2022-11-20T02:19:16;41.20;;;24.53;;
5351;SDS011;2698;51.454;6.736;2022-11-20T02:21:51;36.10;;;22.80;;
5351;SDS011;2698;51.454;6.736;2022-11-20T02:24:26;36.17;;;23.67;;
5351;SDS011;2698;51.454;6.736;2022-11-20T02:26:53;34.67;;;21.80;;
5351;SDS011;2698;51.454;6.736;2022-11-20T02:29:23;35.27;;;22.47;;
5351;SDS011;2698;51.454;6.736;2022-11-20T02:31:52;38.07;;;23.27;;
5351;SDS011;2698;51.454;6.736;2022-11-20T02:34:21;37.07;;;23.33;;
5351;SDS011;2698;51.454;6.736;2022-11-20T02:36:48;36.00;;;24.70;;
5351;SDS011;2698;51.454;6.736;2022-11-20T02:39:16;42.40;;;25.20;;
5351;SDS011;2698;51.454;6.736;2022-11-20T02:41:44;40.50;;;26.27;;
5351;SDS011;2698;51.454;6.736;2022-11-20T02:44:10;36.00;;;24.20;;
5351;SDS011;2698;51.454;6.736;2022-11-20T02:46:37;39.70;;;24.77;;
5351;SDS011;2698;51.454;6.736;2022-11-20T02:49:04;37.90;;;22.80;;
5351;SDS011;2698;51.454;6.736;2022-11-20T02:51:31;38.33;;;24.30;;
5351;SDS011;2698;51.454;6.736;2022-11-20T02:53:58;33.50;;;22.27;;
5351;SDS011;2698;51.454;6.736;2022-11-20T02:56:25;34.90;;;22.13;;
5351;SDS011;2698;51.454;6.736;2022-11-20T02:58:53;38.00;;;24.57;;
5351;SDS011;2698;51.454;6.736;2022-11-20T03:01:20;37.60;;;24.40;;
5351;SDS011;2698;51.454;6.736;2022-11-20T03:03:47;32.40;;;22.30;;
5351;SDS011;2698;51.454;6.736;2022-11-20T03:06:14;33.07;;;23.87;;
5351;SDS011;2698;51.454;6.736;2022-11-20T03:08:41;36.87;;;24.33;;
5351;SDS011;2698;51.454;6.736;2022-11-20T03:11:08;35.47;;;22.90;;
5351;SDS011;2698;51.454;6.736;2022-11-20T03:13:35;36.83;;;24.50;;
5351;SDS011;2698;51.454;6.736;2022-11-20T03:16:11;39.03;;;23.07;;
5351;SDS011;2698;51.454;6.736;2022-11-20T03:18:39;34.43;;;23.87;;
5351;SDS011;2698;51.454;6.736;2022-11-20T03:21:07;30.87;;;20.53;;
5351;SDS011;2698;51.454;6.736;2022-11-20T03:23:34;32.23;;;21.67;;
5351;SDS011;2698;51.454;6.736;2022-11-20T03:26:08;34.60;;;22.13;;
5351;SDS011;2698;51.454;6.736;2022-11-20T03:28:37;29.57;;;20.00;;
5351;SDS011;2698;51.454;6.736;2022-11-20T03:31:07;27.67;;;19.50;;
5351;SDS011;2698;51.454;6.736;2022-11-20T03:33:37;30.07;;;21.67;;
5351;SDS011;2698;51.454;6.736;2022-11-20T03:36:04;35.33;;;23.00;;
5351;SDS011;2698;51.454;6.736;2022-11-20T03:38:33;29.07;;;20.33;;
5351;SDS011;2698;51.454;6.736;2022-11-20T03:41:00;32.97;;;20.67;;
5351;SDS011;2698;51.454;6.736;2022-11-20T03:43:28;34.50;;;22.37;;
5351;SDS011;2698;51.454;6.736;2022-11-20T03:45:55;29.50;;;20.70;;
5351;SDS011;2698;51.454;6.736;2022-11-20T03:48:24;35.27;;;19.53;;
5351;SDS011;2698;51.454;6.736;2022-11-20T03:50:51;30.10;;;19.83;;
5351;SDS011;2698;51.454;6.736;2022-11-20T03:53:18;30.07;;;18.83;;
5351;SDS011;2698;51.454;6.736;2022-11-20T03:55:49;30.10;;;19.87;;
5351;SDS011;2698;51.454;6.736;2022-11-20T03:58:16;30.63;;;19.70;;
5351;SDS011;2698;51.454;6.736;2022-11-20T04:00:43;36.40;;;21.07;;
5351;SDS011;2698;51.454;6.736;2022-11-20T04:03:10;31.77;;;20.53;;
5351;SDS011;2698;51.454;6.736;2022-11-20T04:05:38;37.33;;;23.97;;
5351;SDS011;2698;51.454;6.736;2022-11-20T04:08:05;38.73;;;21.23;;
5351;SDS011;2698;51.454;6.736;2022-11-20T04:10:32;29.90;;;20.83;;
5351;SDS011;2698;51.454;6.736;2022-11-20T04:12:59;30.03;;;20.53;;
5351;SDS011;2698;51.454;6.736;2022-11-20T04:15:26;32.20;;;21.90;;
5351;SDS011;2698;51.454;6.736;2022-11-20T04:17:53;36.37;;;22.23;;
5351;SDS011;2698;51.454;6.736;2022-11-20T04:20:20;33.50;;;21.30;;
5351;SDS011;2698;51.454;6.736;2022-11-20T04:22:48;38.77;;;21.43;;
5351;SDS011;2698;51.454;6.736;2022-11-20T04:25:15;28.37;;;20.90;;
5351;SDS011;2698;51.454;6.736;2022-11-20T04:27:42;36.37;;;23.00;;
5351;SDS011;2698;51.454;6.736;2022-11-20T04:30:09;32.33;;;20.50;;
5351;SDS011;2698;51.454;6.736;2022-11-20T04:32:36;32.10;;;21.57;;
5351;SDS011;2698;51.454;6.736;2022-11-20T04:35:03;36.40;;;22.63;;
5351;SDS011;2698;51.454;6.736;2022-11-20T04:37:31;35.07;;;22.83;;
5351;SDS011;2698;51.454;6.736;2022-11-20T04:39:59;38.63;;;22.70;;
5351;SDS011;2698;51.454;6.736;2022-11-20T04:42:25;40.03;;;23.50;;
5351;SDS011;2698;51.454;6.736;2022-11-20T04:44:55;36.40;;;23.10;;
5351;SDS011;2698;51.454;6.736;2022-11-20T04:47:22;41.23;;;22.93;;
5351;SDS011;2698;51.454;6.736;2022-11-20T04:49:49;34.30;;;22.83;;
5351;SDS011;2698;51.454;6.736;2022-11-20T04:52:16;38.30;;;22.97;;
5351;SDS011;2698;51.454;6.736;2022-11-20T04:54:42;33.77;;;22.00;;
5351;SDS011;2698;51.454;6.736;2022-11-20T04:57:10;37.67;;;24.13;;
5351;SDS011;2698;51.454;6.736;2022-11-20T04:59:39;43.73;;;27.37;;
5351;SDS011;2698;51.454;6.736;2022-11-20T05:02:06;44.47;;;28.03;;
5351;SDS011;2698;51.454;6.736;2022-11-20T05:04:32;49.23;;;26.00;;
5351;SDS011;2698;51.454;6.736;2022-11-20T05:06:59;40.40;;;27.13;;
5351;SDS011;2698;51.454;6.736;2022-11-20T05:09:26;37.90;;;26.27;;
5351;SDS011;2698;51.454;6.736;2022-11-20T05:11:53;39.30;;;25.70;;
5351;SDS011;2698;51.454;6.736;2022-11-20T05:14:21;35.07;;;25.60;;
5351;SDS011;2698;51.454;6.736;2022-11-20T05:16:47;41.70;;;26.40;;
5351;SDS011;2698;51.454;6.736;2022-11-20T05:19:14;43.20;;;26.87;;
5351;SDS011;2698;51.454;6.736;2022-11-20T05:21:41;40.33;;;28.23;;
5351;SDS011;2698;51.454;6.736;2022-11-20T05:24:08;44.00;;;28.93;;
5351;SDS011;2698;51.454;6.736;2022-11-20T05:26:34;44.50;;;29.90;;
5351;SDS011;2698;51.454;6.736;2022-11-20T05:29:01;53.77;;;31.17;;
5351;SDS011;2698;51.454;6.736;2022-11-20T05:31:29;44.60;;;28.73;;
5351;SDS011;2698;51.454;6.736;2022-11-20T05:33:56;44.20;;;27.47;;
5351;SDS011;2698;51.454;6.736;2022-11-20T05:36:23;45.90;;;29.53;;
5351;SDS011;2698;51.454;6.736;2022-11-20T05:38:50;44.27;;;28.13;;
5351;SDS011;2698;51.454;6.736;2022-11-20T05:41:18;40.13;;;26.80;;
5351;SDS011;2698;51.454;6.736;2022-11-20T05:43:46;46.00;;;26.60;;
5351;SDS011;2698;51.454;6.736;2022-11-20T05:46:14;42.20;;;27.67;;
5351;SDS011;2698;51.454;6.736;2022-11-20T05:48:44;43.90;;;27.53;;
5351;SDS011;2698;51.454;6.736;2022-11-20T05:51:12;40.53;;;28.60;;
5351;SDS011;2698;51.454;6.736;2022-11-20T05:53:41;40.10;;;26.63;;
5351;SDS011;2698;51.454;6.736;2022-11-20T05:56:09;40.33;;;27.37;;
5351;SDS011;2698;51.454;6.736;2022-11-20T05:58:37;43.67;;;27.30;;
5351;SDS011;2698;51.454;6.736;2022-11-20T06:01:05;44.23;;;30.70;;
5351;SDS011;2698;51.454;6.736;2022-11-20T06:03:33;37.93;;;29.30;;
5351;SDS011;2698;51.454;6.736;2022-11-20T06:06:01;40.80;;;26.10;;
5351;SDS011;2698;51.454;6.736;2022-11-20T06:08:29;51.63;;;28.30;;
5351;SDS011;2698;51.454;6.736;2022-11-20T06:10:56;48.03;;;26.97;;
5351;SDS011;2698;51.454;6.736;2022-11-20T06:13:22;37.00;;;27.87;;
5351;SDS011;2698;51.454;6.736;2022-11-20T06:15:50;39.27;;;26.73;;
5351;SDS011;2698;51.454;6.736;2022-11-20T06:18:18;40.00;;;29.27;;
5351;SDS011;2698;51.454;6.736;2022-11-20T06:20:45;42.63;;;28.30;;
5351;SDS011;2698;51.454;6.736;2022-11-20T06:23:13;44.43;;;28.73;;
5351;SDS011;2698;51.454;6.736;2022-11-20T06:25:40;51.00;;;28.90;;
5351;SDS011;2698;51.454;6.736;2022-11-20T06:28:08;43.33;;;29.03;;
5351;SDS011;2698;51.454;6.736;2022-11-20T06:30:35;43.10;;;25.77;;
5351;SDS011;2698;51.454;6.736;2022-11-20T06:33:02;56.77;;;27.70;;
5351;SDS011;2698;51.454;6.736;2022-11-20T06:35:29;41.33;;;28.67;;
5351;SDS011;2698;51.454;6.736;2022-11-20T06:37:56;45.10;;;27.93;;
5351;SDS011;2698;51.454;6.736;2022-11-20T06:40:24;38.83;;;26.07;;
5351;SDS011;2698;51.454;6.736;2022-11-20T06:42:53;42.47;;;27.20;;
5351;SDS011;2698;51.454;6.736;2022-11-20T06:45:20;41.63;;;27.83;;
5351;SDS011;2698;51.454;6.736;2022-11-20T06:47:47;43.23;;;28.10;;
5351;SDS011;2698;51.454;6.736;2022-11-20T06:50:13;45.77;;;27.33;;
5351;SDS011;2698;51.454;6.736;2022-11-20T06:52:40;45.67;;;29.17;;
5351;SDS011;2698;51.454;6.736;2022-11-20T06:55:07;38.47;;;28.50;;
5351;SDS011;2698;51.454;6.736;2022-11-20T06:57:35;47.20;;;27.53;;
5351;SDS011;2698;51.454;6.736;2022-11-20T07:00:02;38.83;;;27.60;;
5351;SDS011;2698;51.454;6.736;2022-11-20T07:02:29;50.80;;;27.90;;
5351;SDS011;2698;51.454;6.736;2022-11-20T07:04:56;41.97;;;28.40;;
5351;SDS011;2698;51.454;6.736;2022-11-20T07:07:23;36.27;;;25.90;;
5351;SDS011;2698;51.454;6.736;2022-11-20T07:09:50;49.33;;;30.00;;
5351;SDS011;2698;51.454;6.736;2022-11-20T07:12:16;42.60;;;27.83;;
5351;SDS011;2698;51.454;6.736;2022-11-20T07:14:45;46.83;;;26.77;;
5351;SDS011;2698;51.454;6.736;2022-11-20T07:17:11;43.43;;;26.20;;
5351;SDS011;2698;51.454;6.736;2022-11-20T07:19:38;39.10;;;28.30;;
5351;SDS011;2698;51.454;6.736;2022-11-20T07:22:05;38.50;;;23.73;;
5351;SDS011;2698;51.454;6.736;2022-11-20T07:24:32;48.53;;;26.30;;
5351;SDS011;2698;51.454;6.736;2022-11-20T07:26:58;39.70;;;25.17;;
5351;SDS011;2698;51.454;6.736;2022-11-20T07:29:25;39.23;;;26.40;;
5351;SDS011;2698;51.454;6.736;2022-11-20T07:31:53;41.10;;;27.50;;
5351;SDS011;2698;51.454;6.736;2022-11-20T07:34:20;41.70;;;28.13;;
5351;SDS011;2698;51.454;6.736;2022-11-20T07:36:47;47.37;;;26.37;;
5351;SDS011;2698;51.454;6.736;2022-11-20T07:39:14;45.27;;;27.97;;
5351;SDS011;2698;51.454;6.736;2022-11-20T07:41:40;39.60;;;26.93;;
5351;SDS011;2698;51.454;6.736;2022-11-20T07:44:07;48.40;;;26.63;;
5351;SDS011;2698;51.454;6.736;2022-11-20T07:46:34;40.63;;;26.20;;
5351;SDS011;2698;51.454;6.736;2022-11-20T07:49:02;39.90;;;26.77;;
5351;SDS011;2698;51.454;6.736;2022-11-20T07:51:29;40.47;;;24.93;;
5351;SDS011;2698;51.454;6.736;2022-11-20T07:53:56;43.70;;;27.20;;
5351;SDS011;2698;51.454;6.736;2022-11-20T07:56:22;40.13;;;25.00;;
5351;SDS011;2698;51.454;6.736;2022-11-20T07:58:49;43.47;;;27.03;;
5351;SDS011;2698;51.454;6.736;2022-11-20T08:01:16;37.53;;;25.90;;
5351;SDS011;2698;51.454;6.736;2022-11-20T08:03:42;41.90;;;25.50;;
5351;SDS011;2698;51.454;6.736;2022-11-20T08:06:10;36.67;;;24.57;;
5351;SDS011;2698;51.454;6.736;2022-11-20T08:08:37;45.30;;;24.20;;
5351;SDS011;2698;51.454;6.736;2022-11-20T08:11:05;38.87;;;27.50;;
5351;SDS011;2698;51.454;6.736;2022-11-20T08:13:49;36.00;;;25.07;;
5351;SDS011;2698;51.454;6.736;2022-11-20T08:16:34;50.43;;;27.00;;
5351;SDS011;2698;51.454;6.736;2022-11-20T08:19:00;45.73;;;27.80;;
5351;SDS011;2698;51.454;6.736;2022-11-20T08:21:29;47.67;;;26.50;;
5351;SDS011;2698;51.454;6.736;2022-11-20T08:23:56;47.60;;;26.20;;
5351;SDS011;2698;51.454;6.736;2022-11-20T08:26:23;44.57;;;27.10;;
5351;SDS011;2698;51.454;6.736;2022-11-20T08:28:52;39.00;;;26.27;;
5351;SDS011;2698;51.454;6.736;2022-11-20T08:31:19;36.27;;;25.13;;
5351;SDS011;2698;51.454;6.736;2022-11-20T08:33:46;41.07;;;24.47;;
5351;SDS011;2698;51.454;6.736;2022-11-20T08:36:13;41.40;;;27.37;;
5351;SDS011;2698;51.454;6.736;2022-11-20T08:38:41;39.80;;;24.60;;
5351;SDS011;2698;51.454;6.736;2022-11-20T08:41:08;42.57;;;25.53;;
5351;SDS011;2698;51.454;6.736;2022-11-20T08:43:50;38.97;;;25.33;;
5351;SDS011;2698;51.454;6.736;2022-11-20T08:46:18;38.77;;;24.40;;
5351;SDS011;2698;51.454;6.736;2022-11-20T08:48:45;37.33;;;21.33;;
5351;SDS011;2698;51.454;6.736;2022-11-20T08:51:12;35.40;;;22.80;;
5351;SDS011;2698;51.454;6.736;2022-11-20T08:53:41;33.57;;;21.40;;
5351;SDS011;2698;51.454;6.736;2022-11-20T08:56:08;29.57;;;21.43;;
5351;SDS011;2698;51.454;6.736;2022-11-20T08:58:35;33.43;;;19.93;;
5351;SDS011;2698;51.454;6.736;2022-11-20T09:01:02;23.97;;;18.10;;
5351;SDS011;2698;51.454;6.736;2022-11-20T09:03:29;26.73;;;18.47;;
5351;SDS011;2698;51.454;6.736;2022-11-20T09:05:59;26.00;;;17.40;;
5351;SDS011;2698;51.454;6.736;2022-11-20T09:08:28;27.37;;;18.90;;
5351;SDS011;2698;51.454;6.736;2022-11-20T09:10:57;31.73;;;17.73;;
5351;SDS011;2698;51.454;6.736;2022-11-20T09:13:24;30.00;;;17.33;;
5351;SDS011;2698;51.454;6.736;2022-11-20T09:15:53;26.90;;;19.70;;
5351;SDS011;2698;51.454;6.736;2022-11-20T09:18:21;27.67;;;17.23;;
5351;SDS011;2698;51.454;6.736;2022-11-20T09:20:48;21.73;;;15.70;;
5351;SDS011;2698;51.454;6.736;2022-11-20T09:23:14;32.10;;;17.40;;
5351;SDS011;2698;51.454;6.736;2022-11-20T09:25:41;30.80;;;18.13;;
5351;SDS011;2698;51.454;6.736;2022-11-20T09:28:09;22.00;;;15.17;;
5351;SDS011;2698;51.454;6.736;2022-11-20T09:30:36;26.23;;;19.80;;
5351;SDS011;2698;51.454;6.736;2022-11-20T09:33:04;29.90;;;17.73;;
5351;SDS011;2698;51.454;6.736;2022-11-20T09:35:31;21.00;;;14.50;;
5351;SDS011;2698;51.454;6.736;2022-11-20T09:37:58;22.53;;;14.13;;
5351;SDS011;2698;51.454;6.736;2022-11-20T09:40:25;16.80;;;12.70;;
5351;SDS011;2698;51.454;6.736;2022-11-20T09:42:55;20.63;;;13.20;;
5351;SDS011;2698;51.454;6.736;2022-11-20T09:45:28;24.10;;;15.83;;
5351;SDS011;2698;51.454;6.736;2022-11-20T09:48:11;24.40;;;17.03;;
5351;SDS011;2698;51.454;6.736;2022-11-20T09:50:47;22.63;;;14.07;;
5351;SDS011;2698;51.454;6.736;2022-11-20T09:53:22;31.37;;;17.93;;
5351;SDS011;2698;51.454;6.736;2022-11-20T09:55:56;31.30;;;18.23;;
5351;SDS011;2698;51.454;6.736;2022-11-20T09:58:25;23.60;;;17.43;;
5351;SDS011;2698;51.454;6.736;2022-11-20T10:00:59;45.27;;;26.00;;
5351;SDS011;2698;51.454;6.736;2022-11-20T10:03:35;41.27;;;25.80;;
5351;SDS011;2698;51.454;6.736;2022-11-20T10:06:10;28.33;;;18.63;;
5351;SDS011;2698;51.454;6.736;2022-11-20T10:08:42;26.80;;;17.10;;
5351;SDS011;2698;51.454;6.736;2022-11-20T10:11:15;25.93;;;17.87;;
5351;SDS011;2698;51.454;6.736;2022-11-20T10:13:52;27.30;;;17.47;;
5351;SDS011;2698;51.454;6.736;2022-11-20T10:16:26;24.93;;;18.00;;
5351;SDS011;2698;51.454;6.736;2022-11-20T10:19:05;30.40;;;20.10;;
5351;SDS011;2698;51.454;6.736;2022-11-20T10:21:47;28.50;;;19.97;;
5351;SDS011;2698;51.454;6.736;2022-11-20T10:24:28;26.43;;;19.70;;
5351;SDS011;2698;51.454;6.736;2022-11-20T10:27:08;29.07;;;18.90;;
5351;SDS011;2698;51.454;6.736;2022-11-20T10:29:52;26.00;;;18.30;;
5351;SDS011;2698;51.454;6.736;2022-11-20T10:32:30;29.50;;;18.63;;
5351;SDS011;2698;51.454;6.736;2022-11-20T10:35:04;27.30;;;18.90;;
5351;SDS011;2698;51.454;6.736;2022-11-20T10:37:34;28.83;;;19.50;;
5351;SDS011;2698;51.454;6.736;2022-11-20T10:40:18;33.53;;;20.57;;
5351;SDS011;2698;51.454;6.736;2022-11-20T10:42:49;37.37;;;19.90;;
5351;SDS011;2698;51.454;6.736;2022-11-20T10:45:21;36.33;;;21.27;;
5351;SDS011;2698;51.454;6.736;2022-11-20T10:48:14;44.67;;;21.50;;
5351;SDS011;2698;51.454;6.736;2022-11-20T10:53:47;39.03;;;20.47;;
5351;SDS011;2698;51.454;6.736;2022-11-20T10:56:21;45.33;;;23.20;;
5351;SDS011;2698;51.454;6.736;2022-11-20T10:59:05;32.53;;;20.43;;
5351;SDS011;2698;51.454;6.736;2022-11-20T11:01:57;33.77;;;20.03;;
5351;SDS011;2698;51.454;6.736;2022-11-20T11:04:28;30.80;;;21.10;;
5351;SDS011;2698;51.454;6.736;2022-11-20T11:07:05;30.23;;;20.83;;
5351;SDS011;2698;51.454;6.736;2022-11-20T11:09:38;31.03;;;21.43;;
5351;SDS011;2698;51.454;6.736;2022-11-20T11:12:09;29.10;;;20.60;;
5351;SDS011;2698;51.454;6.736;2022-11-20T11:14:43;34.53;;;20.30;;
5351;SDS011;2698;51.454;6.736;2022-11-20T11:17:20;30.57;;;20.20;;
5351;SDS011;2698;51.454;6.736;2022-11-20T11:20:01;38.57;;;20.97;;
5351;SDS011;2698;51.454;6.736;2022-11-20T11:22:31;37.80;;;21.50;;
5351;SDS011;2698;51.454;6.736;2022-11-20T11:25:00;36.37;;;22.47;;
5351;SDS011;2698;51.454;6.736;2022-11-20T11:27:27;33.00;;;22.80;;
5351;SDS011;2698;51.454;6.736;2022-11-20T11:30:11;36.07;;;22.37;;
5351;SDS011;2698;51.454;6.736;2022-11-20T11:32:41;32.13;;;21.30;;
5351;SDS011;2698;51.454;6.736;2022-11-20T11:35:19;36.33;;;23.20;;
5351;SDS011;2698;51.454;6.736;2022-11-20T11:37:51;34.30;;;21.40;;
5351;SDS011;2698;51.454;6.736;2022-11-20T11:40:20;34.70;;;21.90;;
5351;SDS011;2698;51.454;6.736;2022-11-20T11:42:50;34.47;;;22.17;;
5351;SDS011;2698;51.454;6.736;2022-11-20T11:45:20;42.37;;;25.23;;
5351;SDS011;2698;51.454;6.736;2022-11-20T11:47:46;34.37;;;22.43;;
5351;SDS011;2698;51.454;6.736;2022-11-20T11:50:15;38.60;;;21.07;;
5351;SDS011;2698;51.454;6.736;2022-11-20T11:52:46;34.30;;;21.20;;
5351;SDS011;2698;51.454;6.736;2022-11-20T11:55:27;37.57;;;22.23;;
5351;SDS011;2698;51.454;6.736;2022-11-20T11:58:02;38.80;;;22.63;;
5351;SDS011;2698;51.454;6.736;2022-11-20T12:00:41;38.50;;;21.33;;
5351;SDS011;2698;51.454;6.736;2022-11-20T12:03:16;35.37;;;20.70;;
5351;SDS011;2698;51.454;6.736;2022-11-20T12:05:48;34.13;;;21.37;;
5351;SDS011;2698;51.454;6.736;2022-11-20T12:08:23;32.87;;;19.70;;
5351;SDS011;2698;51.454;6.736;2022-11-20T12:10:53;37.00;;;24.67;;
5351;SDS011;2698;51.454;6.736;2022-11-20T12:13:28;38.17;;;24.87;;
5351;SDS011;2698;51.454;6.736;2022-11-20T12:16:02;54.13;;;28.57;;
5351;SDS011;2698;51.454;6.736;2022-11-20T12:18:31;63.20;;;34.40;;
5351;SDS011;2698;51.454;6.736;2022-11-20T12:21:02;47.97;;;28.23;;
5351;SDS011;2698;51.454;6.736;2022-11-20T12:23:42;51.00;;;30.67;;
5351;SDS011;2698;51.454;6.736;2022-11-20T12:26:18;35.70;;;21.63;;
5351;SDS011;2698;51.454;6.736;2022-11-20T12:28:56;137.73;;;66.13;;
5351;SDS011;2698;51.454;6.736;2022-11-20T12:31:38;90.03;;;40.50;;
5351;SDS011;2698;51.454;6.736;2022-11-20T12:34:23;65.37;;;35.73;;
5351;SDS011;2698;51.454;6.736;2022-11-20T12:37:03;43.13;;;24.63;;
5351;SDS011;2698;51.454;6.736;2022-11-20T12:39:42;34.73;;;20.73;;
5351;SDS011;2698;51.454;6.736;2022-11-20T12:42:19;36.37;;;23.07;;
5351;SDS011;2698;51.454;6.736;2022-11-20T12:45:25;51.30;;;29.43;;
5351;SDS011;2698;51.454;6.736;2022-11-20T12:51:25;50.93;;;27.03;;
5351;SDS011;2698;51.454;6.736;2022-11-20T12:54:11;33.30;;;21.10;;
5351;SDS011;2698;51.454;6.736;2022-11-20T12:56:56;33.43;;;18.17;;
5351;SDS011;2698;51.454;6.736;2022-11-20T12:59:33;35.80;;;20.40;;
5351;SDS011;2698;51.454;6.736;2022-11-20T13:02:14;33.57;;;20.50;;
5351;SDS011;2698;51.454;6.736;2022-11-20T13:04:55;39.20;;;18.13;;
5351;SDS011;2698;51.454;6.736;2022-11-20T13:07:32;35.20;;;19.23;;
5351;SDS011;2698;51.454;6.736;2022-11-20T13:10:01;32.80;;;19.73;;
5351;SDS011;2698;51.454;6.736;2022-11-20T13:12:31;36.77;;;20.20;;
5351;SDS011;2698;51.454;6.736;2022-11-20T13:15:04;32.70;;;20.50;;
5351;SDS011;2698;51.454;6.736;2022-11-20T13:17:41;37.10;;;22.40;;
5351;SDS011;2698;51.454;6.736;2022-11-20T13:20:14;31.57;;;20.53;;
5351;SDS011;2698;51.454;6.736;2022-11-20T13:22:43;32.27;;;19.90;;
5351;SDS011;2698;51.454;6.736;2022-11-20T13:25:21;33.67;;;20.57;;
5351;SDS011;2698;51.454;6.736;2022-11-20T13:27:50;37.70;;;21.30;;
5351;SDS011;2698;51.454;6.736;2022-11-20T13:32:48;33.73;;;20.60;;
5351;SDS011;2698;51.454;6.736;2022-11-20T13:35:24;30.70;;;21.13;;
5351;SDS011;2698;51.454;6.736;2022-11-20T13:38:00;41.80;;;21.90;;
5351;SDS011;2698;51.454;6.736;2022-11-20T13:40:36;35.23;;;22.00;;
5351;SDS011;2698;51.454;6.736;2022-11-20T13:43:11;37.33;;;22.40;;
5351;SDS011;2698;51.454;6.736;2022-11-20T13:45:53;37.07;;;21.37;;
5351;SDS011;2698;51.454;6.736;2022-11-20T13:48:22;44.13;;;22.40;;
5351;SDS011;2698;51.454;6.736;2022-11-20T13:50:55;34.27;;;21.30;;
5351;SDS011;2698;51.454;6.736;2022-11-20T13:53:43;41.10;;;24.10;;
5351;SDS011;2698;51.454;6.736;2022-11-20T13:56:30;39.57;;;21.63;;
5351;SDS011;2698;51.454;6.736;2022-11-20T13:59:08;34.50;;;22.47;;
5351;SDS011;2698;51.454;6.736;2022-11-20T14:01:41;35.63;;;22.00;;
5351;SDS011;2698;51.454;6.736;2022-11-20T14:04:12;36.50;;;23.17;;
5351;SDS011;2698;51.454;6.736;2022-11-20T14:06:44;35.60;;;21.43;;
5351;SDS011;2698;51.454;6.736;2022-11-20T14:09:23;43.03;;;23.20;;
5351;SDS011;2698;51.454;6.736;2022-11-20T14:11:52;42.80;;;23.80;;
5351;SDS011;2698;51.454;6.736;2022-11-20T14:14:20;47.03;;;23.60;;
5351;SDS011;2698;51.454;6.736;2022-11-20T14:16:49;38.20;;;24.30;;
5351;SDS011;2698;51.454;6.736;2022-11-20T14:22:09;45.63;;;25.03;;
5351;SDS011;2698;51.454;6.736;2022-11-20T14:24:43;38.00;;;23.60;;
5351;SDS011;2698;51.454;6.736;2022-11-20T14:27:12;36.63;;;22.20;;
5351;SDS011;2698;51.454;6.736;2022-11-20T14:29:41;40.27;;;23.83;;
5351;SDS011;2698;51.454;6.736;2022-11-20T14:32:10;37.30;;;23.70;;
5351;SDS011;2698;51.454;6.736;2022-11-20T14:34:38;41.37;;;24.53;;
5351;SDS011;2698;51.454;6.736;2022-11-20T14:37:10;42.90;;;22.30;;
5351;SDS011;2698;51.454;6.736;2022-11-20T14:39:40;45.10;;;26.13;;
5351;SDS011;2698;51.454;6.736;2022-11-20T14:42:15;45.20;;;25.00;;
5351;SDS011;2698;51.454;6.736;2022-11-20T14:44:44;37.57;;;22.00;;
5351;SDS011;2698;51.454;6.736;2022-11-20T14:47:12;42.73;;;25.13;;
5351;SDS011;2698;51.454;6.736;2022-11-20T14:49:41;41.00;;;24.40;;
5351;SDS011;2698;51.454;6.736;2022-11-20T14:52:11;41.20;;;24.03;;
5351;SDS011;2698;51.454;6.736;2022-11-20T14:54:43;38.60;;;24.63;;
5351;SDS011;2698;51.454;6.736;2022-11-20T14:57:20;40.80;;;25.57;;
5351;SDS011;2698;51.454;6.736;2022-11-20T14:59:50;43.53;;;25.67;;
5351;SDS011;2698;51.454;6.736;2022-11-20T15:02:16;48.37;;;27.70;;
5351;SDS011;2698;51.454;6.736;2022-11-20T15:04:44;41.07;;;25.40;;
5351;SDS011;2698;51.454;6.736;2022-11-20T15:07:22;41.40;;;24.20;;
5351;SDS011;2698;51.454;6.736;2022-11-20T15:09:58;42.63;;;25.57;;
5351;SDS011;2698;51.454;6.736;2022-11-20T15:12:26;44.83;;;23.70;;
5351;SDS011;2698;51.454;6.736;2022-11-20T15:14:54;44.87;;;26.40;;
5351;SDS011;2698;51.454;6.736;2022-11-20T15:17:21;42.53;;;24.40;;